createdAt,value
2023-05-21T00:00:23.648Z,101047.16
2023-05-21T00:02:35.379Z,101045.39
2023-05-21T00:04:50.336Z,101046.33
2023-05-21T00:07:02.505Z,101046.28
2023-05-21T00:09:15.040Z,101046.43
2023-05-21T00:11:32.752Z,101046.67
2023-05-21T00:13:44.047Z,101048
2023-05-21T00:15:53.932Z,101052.36
2023-05-21T00:18:09.207Z,101050.55
2023-05-21T00:20:20.406Z,101052.81
2023-05-21T00:22:35.435Z,101049.81
2023-05-21T00:24:54.646Z,101046.55
2023-05-21T00:27:03.945Z,101045.48
2023-05-21T00:29:17.310Z,101044.59
2023-05-21T00:31:25.197Z,101049.09
2023-05-21T00:33:35.738Z,101045.36
2023-05-21T00:35:43.676Z,101048.73
2023-05-21T00:38:02.239Z,101048.39
2023-05-21T00:40:16.386Z,101046.94
2023-05-21T00:42:24.414Z,101050.14
2023-05-21T00:44:38.468Z,101046.79
2023-05-21T00:46:55.273Z,101046.77
2023-05-21T00:49:06.630Z,101046.88
2023-05-21T00:51:25.338Z,101048.11
2023-05-21T00:53:38.500Z,101055.2
2023-05-21T00:55:46.277Z,101058.17
2023-05-21T00:57:53.831Z,101055.77
2023-05-21T01:00:07.772Z,101058.73
2023-05-21T01:02:17.348Z,101059.31
2023-05-21T01:04:28.334Z,101058.58
2023-05-21T01:06:37.324Z,101060
2023-05-21T01:08:50.287Z,101057.83
2023-05-21T01:10:58.713Z,101053.57
2023-05-21T01:13:11.582Z,101056.47
2023-05-21T01:15:21.335Z,101055.63
2023-05-21T01:17:30.891Z,101058.46
2023-05-21T01:19:42.149Z,101059.98
2023-05-21T01:21:53.303Z,101056.16
2023-05-21T01:24:05.652Z,101053.58
2023-05-21T01:26:15.630Z,101046.52
2023-05-21T01:28:27.755Z,101040.93
2023-05-21T01:30:42.948Z,101043.03
2023-05-21T01:32:53.676Z,101045.76
2023-05-21T01:35:02.094Z,101045.02
2023-05-21T01:37:10.903Z,101043.39
2023-05-21T01:39:18.228Z,101043.31
2023-05-21T01:41:32.173Z,101042.02
2023-05-21T01:43:49.186Z,101045.34
2023-05-21T01:45:58.800Z,101047.19
2023-05-21T01:48:19.771Z,101047.21
2023-05-21T01:50:32.822Z,101049.49
2023-05-21T01:52:46.971Z,101053.76
2023-05-21T01:55:10.190Z,101052.19
2023-05-21T01:57:21.416Z,101053.36
2023-05-21T01:59:31.144Z,101054.08
2023-05-21T02:01:43.525Z,101053.88
2023-05-21T02:04:01.918Z,101051.07
2023-05-21T02:06:30.936Z,101050.3
2023-05-21T02:09:00.839Z,101056.05
2023-05-21T02:11:39.856Z,101053.7
2023-05-21T02:13:52.946Z,101049.15
2023-05-21T02:16:12.036Z,101049.14
2023-05-21T02:18:39.791Z,101048.66
2023-05-21T02:21:07.074Z,101047.41
2023-05-21T02:23:48.784Z,101044.73
2023-05-21T02:26:17.983Z,101042.64
2023-05-21T02:28:38.148Z,101042.48
2023-05-21T02:30:52.156Z,101039.37
2023-05-21T02:33:17.035Z,101044.12
2023-05-21T02:35:39.329Z,101044.13
2023-05-21T02:38:23.104Z,101040.63
2023-05-21T02:40:40.808Z,101043.52
2023-05-21T02:43:00.816Z,101039.06
2023-05-21T02:45:18.335Z,101042.66
2023-05-21T02:48:00.105Z,101038.38
2023-05-21T02:50:22.817Z,101040.52
2023-05-21T02:52:43.981Z,101040.16
2023-05-21T02:56:30.489Z,101030.45
2023-05-21T03:06:51.769Z,101027.34
2023-05-21T03:36:02.274Z,101014.13
2023-05-21T03:38:39.333Z,101013.96
2023-05-21T03:41:13.880Z,101011.41
2023-05-21T03:43:59.636Z,101011.2
2023-05-21T03:46:14.932Z,101006.91
2023-05-21T03:48:38.492Z,101013.13
2023-05-21T03:50:58.514Z,101013.19
2023-05-21T03:53:20.408Z,101009.24
2023-05-21T03:55:38.490Z,101009.27
2023-05-21T04:00:41.474Z,101002.55
2023-05-21T04:03:05.316Z,101001.48
2023-05-21T04:05:24.689Z,101000.48
2023-05-21T04:07:37.567Z,101000.8
2023-05-21T04:10:03.998Z,101004.91
2023-05-21T04:12:29.598Z,101002.07
2023-05-21T04:14:45.947Z,101001.38
2023-05-21T04:17:05.163Z,101001.69
2023-05-21T04:19:19.333Z,100997.8
2023-05-21T04:21:39.466Z,100997.78
2023-05-21T04:23:56.713Z,100999.88
2023-05-21T04:26:22.930Z,100997.23
2023-05-21T04:28:47.560Z,101001.78
2023-05-21T04:31:00.001Z,101000.95
2023-05-21T04:33:33.180Z,100999.67
2023-05-21T04:35:44.202Z,100999.56
2023-05-21T04:38:04.287Z,100995.95
2023-05-21T04:40:21.816Z,100997.16
2023-05-21T04:42:32.403Z,100992.91
2023-05-21T04:44:45.837Z,100992.27
2023-05-21T04:46:54.192Z,100989.31
2023-05-21T04:49:13.911Z,100990.81
2023-05-21T04:51:32.482Z,100987.57
2023-05-21T04:53:51.187Z,100985.03
2023-05-21T04:56:07.622Z,100974.52
2023-05-21T04:58:29.528Z,100977.47
2023-05-21T05:01:00.318Z,100966.75
2023-05-21T05:03:17.826Z,100962.54
2023-05-21T05:05:43.210Z,100963.77
2023-05-21T05:07:57.398Z,100959.78
2023-05-21T05:10:25.229Z,100955.41
2023-05-21T05:12:45.856Z,100951.47
2023-05-21T05:15:03.830Z,100951.01
2023-05-21T05:17:22.339Z,100950.05
2023-05-21T05:19:35.002Z,100949.64
2023-05-21T05:22:29.508Z,100947.6
2023-05-21T07:28:49.085Z,100906.86
2023-05-21T07:31:34.711Z,100909.2
2023-05-21T07:34:26.501Z,100907.13
2023-05-21T07:37:14.574Z,100908.89
2023-05-21T07:39:36.575Z,100907.05
2023-05-21T07:41:59.847Z,100905.69
2023-05-21T07:44:07.443Z,100904.99
2023-05-21T07:46:30.043Z,100903.41
2023-05-21T07:48:47.450Z,100903.79
2023-05-21T07:51:09.031Z,100906.31
2023-05-21T07:53:18.749Z,100904.2
2023-05-21T07:55:25.421Z,100900.69
2023-05-21T07:57:36.325Z,100898.3
2023-05-21T07:59:46.175Z,100905.11
2023-05-21T08:01:54.324Z,100897.67
2023-05-21T08:04:03.517Z,100900.34
2023-05-21T08:08:49.091Z,100895.19
2023-05-21T08:10:56.421Z,100897.58
2023-05-21T08:13:04.320Z,100895.53
2023-05-21T08:15:15.732Z,100897.25
2023-05-21T08:17:24.713Z,100895.73
2023-05-21T08:19:36.592Z,100895.56
2023-05-21T08:21:47.016Z,100893.59
2023-05-21T08:24:03.941Z,100884.14
2023-05-21T08:26:12.748Z,100884.25
2023-05-21T08:28:20.383Z,100881.52
2023-05-21T08:30:48.285Z,100886.89
2023-05-21T08:32:57.803Z,100881.73
2023-05-21T08:35:09.248Z,100874.24
2023-05-21T08:37:18.059Z,100876.83
2023-05-21T08:39:25.625Z,100880.19
2023-05-21T08:41:35.534Z,100881.64
2023-05-21T08:43:57.584Z,100874.03
2023-05-21T08:46:09.883Z,100880.75
2023-05-21T08:48:19.210Z,100880.95
2023-05-21T08:50:28.404Z,100880.27
2023-05-21T08:52:44.729Z,100885.83
2023-05-21T08:54:53.265Z,100875.09
2023-05-21T08:57:01.875Z,100889.78
2023-05-21T08:59:23.738Z,100888.46
2023-05-21T09:01:32.478Z,100882.2
2023-05-21T09:03:40.698Z,100883.7
2023-05-21T09:08:14.966Z,100881.69
2023-05-21T09:10:23.054Z,100877.3
2023-05-21T09:12:30.300Z,100879.77
2023-05-21T09:14:37.480Z,100880.27
2023-05-21T09:16:46.661Z,100877.27
2023-05-21T09:18:55.973Z,100875.98
2023-05-21T09:21:09.073Z,100863.54
2023-05-21T09:23:17.053Z,100870.17
2023-05-21T09:25:25.404Z,100866.59
2023-05-21T09:27:33.824Z,100874.34
2023-05-21T09:29:42.483Z,100876.02
2023-05-21T09:31:53.452Z,100866.92
2023-05-21T09:34:01.969Z,100866.69
2023-05-21T09:36:11.172Z,100869.48
2023-05-21T09:38:18.961Z,100867.83
2023-05-21T09:40:27.706Z,100862.91
2023-05-21T09:42:39.170Z,100861.82
2023-05-21T09:44:51.654Z,100853.77
2023-05-21T09:47:07.718Z,100851.73
2023-05-21T09:49:31.532Z,100853.27
2023-05-21T09:51:39.200Z,100855.33
2023-05-21T09:53:47.484Z,100854.99
2023-05-21T09:55:55.711Z,100853.15
2023-05-21T09:58:05.578Z,100849.16
2023-05-21T10:00:14.434Z,100857.28
2023-05-21T10:02:22.875Z,100845.72
2023-05-21T10:04:32.115Z,100844.71
2023-05-21T10:06:40.608Z,100842.31
2023-05-21T10:08:49.769Z,100849.34
2023-05-21T10:10:57.782Z,100847.48
2023-05-21T10:13:05.293Z,100842.17
2023-05-21T10:15:24.063Z,100837.25
2023-05-21T10:17:33.360Z,100839.42
2023-05-21T10:19:42.693Z,100841.31
2023-05-21T10:21:53.766Z,100844.89
2023-05-21T10:24:03.969Z,100838.98
2023-05-21T10:26:12.120Z,100840.95
2023-05-21T10:28:21.847Z,100838.08
2023-05-21T10:30:30.692Z,100839.11
2023-05-21T10:32:39.466Z,100842.17
2023-05-21T10:34:48.303Z,100842.01
2023-05-21T10:36:56.083Z,100838.7
2023-05-21T10:39:06.996Z,100834.98
2023-05-21T10:41:23.024Z,100842.31
2023-05-21T10:43:31.758Z,100836.77
2023-05-21T10:45:40.860Z,100831.33
2023-05-21T10:47:50.599Z,100825.92
2023-05-21T10:50:00.310Z,100830.05
2023-05-21T10:52:08.798Z,100823.71
2023-05-21T10:54:16.949Z,100824.94
2023-05-21T10:56:24.834Z,100825.45
2023-05-21T10:58:32.768Z,100827.09
2023-05-21T11:00:41.378Z,100822.41
2023-05-21T11:02:49.746Z,100818.52
2023-05-21T11:04:58.685Z,100815.7
2023-05-21T11:07:05.711Z,100812.05
2023-05-21T11:09:12.929Z,100811.81
2023-05-21T11:11:21.180Z,100818.22
2023-05-21T11:13:32.774Z,100815.91
2023-05-21T11:15:41.802Z,100811.04
2023-05-21T11:17:50.584Z,100803.54
2023-05-21T11:20:02.723Z,100799.38
2023-05-21T11:22:10.967Z,100800.75
2023-05-21T11:24:22.501Z,100801.69
2023-05-21T11:26:32.781Z,100800.86
2023-05-21T11:28:41.840Z,100804.64
2023-05-21T11:30:50.681Z,100800.03
2023-05-21T11:33:01.161Z,100793.09
2023-05-21T11:35:09.671Z,100799.44
2023-05-21T11:37:18.916Z,100800.13
2023-05-21T11:39:27.837Z,100795.92
2023-05-21T11:41:35.080Z,100789.69
2023-05-21T11:43:42.721Z,100790.62
2023-05-21T11:45:51.585Z,100797.59
2023-05-21T11:47:59.993Z,100790.79
2023-05-21T11:50:08.677Z,100795.88
2023-05-21T11:52:18.045Z,100800.25
2023-05-21T11:54:26.936Z,100803.38
2023-05-21T11:56:35.214Z,100796.04
2023-05-21T11:58:43.298Z,100794.02
2023-05-21T12:00:51.721Z,100799.55
2023-05-21T12:03:00.205Z,100796.16
2023-05-21T12:05:08.468Z,100793.77
2023-05-21T12:07:18.650Z,100792.13
2023-05-21T12:09:27.785Z,100793.06
2023-05-21T12:11:35.701Z,100792.63
2023-05-21T12:13:43.609Z,100787.91
2023-05-21T12:15:52.818Z,100788.94
2023-05-21T12:18:00.903Z,100792.5
2023-05-21T12:20:09.967Z,100796.3
2023-05-21T12:22:18.590Z,100791.58
2023-05-21T12:24:27.083Z,100786.94
2023-05-21T12:26:35.621Z,100781.86
2023-05-21T12:28:43.462Z,100783.28
2023-05-21T12:30:51.806Z,100788.47
2023-05-21T12:32:59.236Z,100781.33
2023-05-21T12:35:07.323Z,100786.64
2023-05-21T12:37:16.615Z,100778.2
2023-05-21T12:39:28.037Z,100777.34
2023-05-21T12:41:36.112Z,100780.64
2023-05-21T12:43:44.474Z,100783.39
2023-05-21T12:45:52.752Z,100775.27
2023-05-21T12:48:01.465Z,100773.28
2023-05-21T12:50:10.239Z,100767.14
2023-05-21T12:52:18.267Z,100776.86
2023-05-21T12:54:29.832Z,100771.84
2023-05-21T12:56:40.548Z,100773.91
2023-05-21T12:58:50.334Z,100774.27
2023-05-21T13:00:59.175Z,100770.91
2023-05-21T13:03:10.797Z,100766.39
2023-05-21T13:05:19.049Z,100762.95
2023-05-21T13:07:28.416Z,100759.95
2023-05-21T13:09:36.958Z,100759.48
2023-05-21T13:11:45.676Z,100763.34
2023-05-21T13:13:56.854Z,100754.86
2023-05-21T13:16:07.658Z,100756.8
2023-05-21T13:18:16.328Z,100750.38
2023-05-21T13:20:25.294Z,100760.03
2023-05-21T13:22:34.486Z,100756.73
2023-05-21T13:24:42.929Z,100755.66
2023-05-21T13:26:52.646Z,100762.66
2023-05-21T13:29:01.120Z,100760.34
2023-05-21T13:31:09.585Z,100752.81
2023-05-21T13:33:20.592Z,100757.92
2023-05-21T13:35:29.935Z,100753.91
2023-05-21T13:37:39.091Z,100756.05
2023-05-21T13:39:49.789Z,100754.11
2023-05-21T13:41:58.653Z,100752.63
2023-05-21T13:44:07.412Z,100747.77
2023-05-21T13:46:16.355Z,100745.23
2023-05-21T13:48:28.465Z,100741.52
2023-05-21T13:50:38.638Z,100741.5
2023-05-21T13:52:46.395Z,100738.67
2023-05-21T13:54:55.111Z,100740.84
2023-05-21T13:57:04.440Z,100738.49
2023-05-21T13:59:12.799Z,100735.6
2023-05-21T14:01:20.087Z,100734.25
2023-05-21T14:03:27.755Z,100734.09
2023-05-21T14:05:36.969Z,100731.46
2023-05-21T14:07:45.182Z,100732.05
2023-05-21T14:09:59.543Z,100734.87
2023-05-21T14:12:08.601Z,100737.34
2023-05-21T14:14:16.969Z,100730.67
2023-05-21T14:16:25.592Z,100730.91
2023-05-21T14:18:37.342Z,100728.08
2023-05-21T14:20:46.191Z,100723.84
2023-05-21T14:22:55.296Z,100725.98
2023-05-21T14:25:03.369Z,100725.91
2023-05-21T14:27:17.285Z,100718.82
2023-05-21T14:29:25.917Z,100721.13
2023-05-21T14:31:35.683Z,100722.95
2023-05-21T14:33:44.517Z,100721.52
2023-05-21T14:35:53.743Z,100725.45
2023-05-21T14:38:03.078Z,100719.47
2023-05-21T14:40:13.135Z,100723.13
2023-05-21T14:42:21.224Z,100716.58
2023-05-21T14:44:31.050Z,100714.75
2023-05-21T14:46:39.301Z,100712.81
2023-05-21T14:48:47.851Z,100709.87
2023-05-21T14:51:00.909Z,100706.04
2023-05-21T14:53:12.660Z,100704.67
2023-05-21T14:55:20.812Z,100704.95
2023-05-21T14:57:32.336Z,100703.05
2023-05-21T14:59:42.040Z,100708.3
2023-05-21T15:01:51.121Z,100701.92
2023-05-21T15:04:02.451Z,100702.27
2023-05-21T15:06:15.506Z,100700.44
2023-05-21T15:08:26.590Z,100703.29
2023-05-21T15:10:35.128Z,100694.75
2023-05-21T15:12:47.576Z,100692.19
2023-05-21T15:14:56.584Z,100699.54
2023-05-21T15:17:06.555Z,100695.22
2023-05-21T15:19:16.248Z,100695.4
2023-05-21T15:21:29.867Z,100690.45
2023-05-21T15:23:41.806Z,100689.52
2023-05-21T15:25:52.701Z,100695.63
2023-05-21T15:28:05.020Z,100698.52
2023-05-21T15:30:13.520Z,100692.47
2023-05-21T15:32:23.471Z,100697.95
2023-05-21T15:34:34.700Z,100692.67
2023-05-21T15:37:12.459Z,100690.24
2023-05-21T15:39:22.512Z,100685.53
2023-05-21T15:41:34.094Z,100680.64
2023-05-21T15:43:42.820Z,100684.61
2023-05-21T15:45:56.611Z,100690.66
2023-05-21T15:48:05.761Z,100690.61
2023-05-21T15:50:15.639Z,100687.09
2023-05-21T15:52:24.419Z,100689.89
2023-05-21T15:54:33.129Z,100685.22
2023-05-21T15:56:42.330Z,100680.33
2023-05-21T15:58:58.140Z,100681.96
2023-05-21T16:01:07.281Z,100686.13
2023-05-21T16:03:18.819Z,100687.58
2023-05-21T16:05:28.125Z,100684.39
2023-05-21T16:07:39.474Z,100677.17
2023-05-21T16:09:47.635Z,100684.5
2023-05-21T16:11:56.338Z,100681.35
2023-05-21T16:14:04.326Z,100687.91
2023-05-21T16:16:12.306Z,100685.93
2023-05-21T16:18:21.650Z,100689.28
2023-05-21T16:20:30.364Z,100684.54
2023-05-21T16:22:40.059Z,100686.68
2023-05-21T16:24:48.574Z,100685.77
2023-05-21T16:26:57.832Z,100687.7
2023-05-21T16:29:05.708Z,100687.05
2023-05-21T16:31:14.024Z,100688.64
2023-05-21T16:33:23.272Z,100683.14
2023-05-21T16:35:31.587Z,100685.27
2023-05-21T16:37:40.914Z,100685.91
2023-05-21T16:39:48.956Z,100692.27
2023-05-21T16:41:58.353Z,100688.33
2023-05-21T16:44:07.287Z,100691.3
2023-05-21T16:46:17.256Z,100686.89
2023-05-21T16:48:25.630Z,100689.41
2023-05-21T16:50:33.994Z,100694.97
2023-05-21T16:52:43.108Z,100696.63
2023-05-21T16:54:52.187Z,100696.57
2023-05-21T16:57:00.728Z,100695.23
2023-05-21T16:59:10.213Z,100694.18
2023-05-21T17:01:18.768Z,100696.57
2023-05-21T17:03:30.641Z,100693.38
2023-05-21T17:05:40.646Z,100696.47
2023-05-21T17:07:50.517Z,100695.01
2023-05-21T17:09:58.902Z,100692.98
2023-05-21T17:12:21.239Z,100696.02
2023-05-21T17:14:38.318Z,100694.51
2023-05-21T17:16:48.240Z,100694.75
2023-05-21T17:18:56.362Z,100691.81
2023-05-21T17:21:04.408Z,100695.8
2023-05-21T17:23:14.246Z,100693.48
2023-05-21T17:25:25.436Z,100701.52
2023-05-21T17:27:39.566Z,100696.68
2023-05-21T17:29:47.586Z,100700.23
2023-05-21T17:31:56.658Z,100699.83
2023-05-21T17:34:07.180Z,100698.02
2023-05-21T17:36:16.306Z,100695.66
2023-05-21T17:38:24.568Z,100697.31
2023-05-21T17:40:32.512Z,100699.22
2023-05-21T17:42:42.099Z,100699.45
2023-05-21T17:44:50.653Z,100699.45
2023-05-21T17:47:00.189Z,100699.93
2023-05-21T17:49:12.335Z,100699.03
2023-05-21T17:51:20.316Z,100698.29
2023-05-21T17:53:28.109Z,100699.14
2023-05-21T17:55:37.412Z,100695.17
2023-05-21T17:57:46.042Z,100695.53
2023-05-21T17:59:54.481Z,100697.58
2023-05-21T18:02:02.578Z,100701.65
2023-05-21T18:04:10.696Z,100698.78
2023-05-21T18:06:19.398Z,100700.5
2023-05-21T18:08:28.657Z,100694.38
2023-05-21T18:10:36.945Z,100692.84
2023-05-21T18:12:46.340Z,100696.74
2023-05-21T18:14:54.395Z,100688.84
2023-05-21T18:17:03.006Z,100691.59
2023-05-21T18:19:11.746Z,100691.14
2023-05-21T18:21:37.727Z,100691.09
2023-05-21T18:23:45.623Z,100694.54
2023-05-21T18:25:54.853Z,100698.05
2023-05-21T18:28:04.590Z,100696.61
2023-05-21T18:30:12.583Z,100698.84
2023-05-21T18:32:21.047Z,100702.81
2023-05-21T18:34:31.687Z,100701.48
2023-05-21T18:36:43.784Z,100701.88
2023-05-21T18:39:07.253Z,100704
2023-05-21T18:41:15.995Z,100701.11
2023-05-21T18:43:27.413Z,100703.94
2023-05-21T18:45:37.404Z,100704.02
2023-05-21T18:47:47.181Z,100703.73
2023-05-21T18:49:55.604Z,100707.92
2023-05-21T18:52:04.468Z,100702.75
2023-05-21T18:54:13.328Z,100705.2
2023-05-21T18:56:21.993Z,100706.77
2023-05-21T18:58:30.449Z,100708.58
2023-05-21T19:00:41.037Z,100706.42
2023-05-21T19:02:49.290Z,100705.5
2023-05-21T19:04:57.972Z,100709.9
2023-05-21T19:07:06.473Z,100715.11
2023-05-21T19:09:17.245Z,100714.25
2023-05-21T19:11:26.874Z,100711.39
2023-05-21T19:13:36.109Z,100718.73
2023-05-21T19:15:45.098Z,100713.98
2023-05-21T19:17:54.338Z,100717.49
2023-05-21T19:20:03.352Z,100716.85
2023-05-21T19:22:11.905Z,100713.73
2023-05-21T19:24:20.300Z,100716.48
2023-05-21T19:26:31.533Z,100720.9
2023-05-21T19:28:40.009Z,100716.27
2023-05-21T19:30:50.020Z,100715.09
2023-05-21T19:32:58.672Z,100716.6
2023-05-21T19:35:07.829Z,100718.51
2023-05-21T19:37:17.083Z,100718.02
2023-05-21T19:39:28.883Z,100717.87
2023-05-21T19:41:37.932Z,100715.81
2023-05-21T19:43:47.764Z,100718.77
2023-05-21T19:45:57.344Z,100721.59
2023-05-21T19:48:06.908Z,100723.26
2023-05-21T19:50:16.579Z,100726.3
2023-05-21T19:52:24.919Z,100728.78
2023-05-21T19:54:33.826Z,100725.47
2023-05-21T19:56:42.497Z,100720.92
2023-05-21T19:58:50.038Z,100720.73
2023-05-21T20:00:57.939Z,100716.84
2023-05-21T20:03:06.690Z,100715.84
2023-05-21T20:05:18.860Z,100715.67
2023-05-21T20:07:27.249Z,100716.41
2023-05-21T20:09:35.381Z,100716.66
2023-05-21T20:11:43.628Z,100710.16
2023-05-21T20:13:53.373Z,100716.86
2023-05-21T20:16:01.784Z,100712.63
2023-05-21T20:18:10.104Z,100714.73
2023-05-21T20:20:18.259Z,100707.92
2023-05-21T20:22:27.208Z,100708.39
2023-05-21T20:24:35.571Z,100712.91
2023-05-21T20:26:45.157Z,100711.96
2023-05-21T20:28:53.437Z,100715.56
2023-05-21T20:31:01.511Z,100715.84
2023-05-21T20:33:10.353Z,100711.52
2023-05-21T20:35:21.632Z,100714.99
2023-05-21T20:37:30.335Z,100711.46
2023-05-21T20:39:38.527Z,100707.3
2023-05-21T20:41:47.054Z,100708.95
2023-05-21T20:43:55.919Z,100708.83
2023-05-21T20:46:04.114Z,100713.51
2023-05-21T20:48:13.584Z,100711.33
2023-05-21T20:50:22.171Z,100712.06
2023-05-21T20:52:30.981Z,100716.67
2023-05-21T20:54:38.916Z,100718.39
2023-05-21T20:56:48.989Z,100718.55
2023-05-21T20:58:57.409Z,100720.26
2023-05-21T21:01:05.191Z,100719
2023-05-21T21:03:13.547Z,100716.25
2023-05-21T21:05:21.358Z,100717.52
2023-05-21T21:07:29.404Z,100714.63
2023-05-21T21:09:39.751Z,100712.05
2023-05-21T21:11:47.830Z,100713.29
2023-05-21T21:13:57.032Z,100713.45
2023-05-21T21:16:06.053Z,100714.75
2023-05-21T21:18:14.554Z,100714.24
2023-05-21T21:20:25.645Z,100714.09
2023-05-21T21:22:33.983Z,100717.31
2023-05-21T21:24:41.876Z,100716.72
2023-05-21T21:26:54.041Z,100716.47
2023-05-21T21:29:02.748Z,100712.81
2023-05-21T21:31:11.731Z,100712.22
2023-05-21T21:33:23.600Z,100711.44
2023-05-21T21:35:31.323Z,100706.94
2023-05-21T21:37:39.457Z,100709.89
2023-05-21T21:39:47.617Z,100711.28
2023-05-21T21:41:54.823Z,100714.77
2023-05-21T21:44:02.019Z,100711.64
2023-05-21T21:46:11.285Z,100712.48
2023-05-21T21:48:19.321Z,100715.72
2023-05-21T21:50:28.009Z,100716.66
2023-05-21T21:52:36.045Z,100723.72
2023-05-21T21:54:45.019Z,100723.87
2023-05-21T21:56:52.734Z,100724.92
2023-05-21T21:59:00.621Z,100720.73
2023-05-21T22:01:08.971Z,100716.72
2023-05-21T22:03:18.923Z,100719.38
2023-05-21T22:05:26.307Z,100715.05
2023-05-21T22:07:33.679Z,100719.14
2023-05-21T22:09:40.429Z,100713.75
2023-05-21T22:11:47.583Z,100714.89
2023-05-21T22:13:54.663Z,100715.61
2023-05-21T22:16:01.478Z,100717.4
2023-05-21T22:18:08.770Z,100718.23
2023-05-21T22:20:16.364Z,100713.48
2023-05-21T22:22:26.195Z,100712.52
2023-05-21T22:24:35.197Z,100714.52
2023-05-21T22:26:42.410Z,100713.44
2023-05-21T22:28:49.647Z,100717.48
2023-05-21T22:30:56.649Z,100712.87
2023-05-21T22:33:04.137Z,100716.17
2023-05-21T22:35:11.019Z,100715.16
2023-05-21T22:37:19.715Z,100714.35
2023-05-21T22:39:26.360Z,100712.78
2023-05-21T22:41:34.083Z,100715.81
2023-05-21T22:43:41.192Z,100717.05
2023-05-21T22:45:47.762Z,100724.73
2023-05-21T22:47:54.758Z,100721.72
2023-05-21T22:50:02.875Z,100726.11
2023-05-21T22:52:12.432Z,100724.6
2023-05-21T22:54:20.274Z,100727.55
2023-05-21T22:56:27.278Z,100723.66
2023-05-21T22:58:35.044Z,100721.13
2023-05-21T23:00:42.597Z,100720.42
2023-05-21T23:02:56.128Z,100720.2
2023-05-21T23:05:03.223Z,100721.14
2023-05-21T23:07:10.900Z,100719.57
2023-05-21T23:09:19.141Z,100724.63
2023-05-21T23:11:26.231Z,100723.36
2023-05-21T23:13:33.404Z,100725.28
2023-05-21T23:15:41.154Z,100722.95
2023-05-21T23:17:47.939Z,100722.58
2023-05-21T23:19:55.162Z,100723.32
2023-05-21T23:22:02.697Z,100728.66
2023-05-21T23:24:09.209Z,100731.91
2023-05-21T23:26:17.269Z,100733.86
2023-05-21T23:28:24.766Z,100728.06
2023-05-21T23:30:31.709Z,100724.74
2023-05-21T23:32:39.000Z,100728.41
2023-05-21T23:34:46.956Z,100725.22
2023-05-21T23:36:54.154Z,100725.33
2023-05-21T23:39:04.522Z,100728.73
2023-05-21T23:41:11.858Z,100724.92
2023-05-21T23:43:20.027Z,100727.92
2023-05-21T23:45:28.818Z,100725.01
2023-05-21T23:47:35.856Z,100724.13
2023-05-21T23:49:43.148Z,100722.75
2023-05-21T23:51:50.559Z,100725.64
2023-05-21T23:53:57.364Z,100726.8
2023-05-21T23:56:03.775Z,100723.55
2023-05-21T23:58:11.807Z,100722.39
